Free Trial

VanEck High Yield Muni ETF (HYD) Institutional Ownership

$51.36
-0.13 (-0.25%)
(As of 05/23/2024 ET)

Institutional Ownership Changes (13F Filings) for VanEck High Yield Muni ETF (BATS:HYD)

Number of
Institutional Buyers
(last 12 months)
202
Total
Institutional Inflows
(last 12 months)
$600.70M
Number of
Institutional Sellers
(last 12 months)
148
Total
Institutional Outflows
(last 12 months)
$247.92M
Get HYD Insider Trade Alerts

Want to know when executives and insiders are buying or selling VanEck High Yield Muni ETF stock? Sign up for InsiderTrades.com's daily newsletter to get the latest insider transactions delivered to your inbox daily.

Skip Chart & View Institutional Buying and Selling Data

HYD Institutional Buying and Selling by Quarter

VanEck High Yield Muni ETF Major Shareholders & Ownership History

Reporting DateMajor Shareholder NameShares HeldMarket Value% of PortfolioQuarterly Change in SharesOwnership in CompanyDetails
5/17/2024 Jaffetilchin Investment Partners LLC7,010$366K0.0%-55.7%0.012%
5/17/2024 Comerica Bank20,497$1.07M0.0%-63.5%0.036%
5/17/2024 Wiser Advisor Group LLC7,195$376K0.6%-9.7%0.013%
5/16/2024 Jane Street Group LLC191,071$9.99M0.0%-47.8%0.336%
5/16/2024 Innova Wealth Partners7,775$406K0.3%-5.5%0.014%
5/14/2024 CreativeOne Wealth LLC17,180$898K0.0%+45.5%0.030%
5/14/2024 Owen LaRue LLC117,453$6.14M3.8%+220.4%0.207%
5/11/2024 Ironwood Investment Counsel LLC114,260$5.97M1.0%-6.5%0.201%
5/10/2024 Osaic Holdings Inc.172,753$9.03M0.0%-48.9%0.304%
5/10/2024 TIAA Trust National Association684,389$35.77M0.1%+1.7%1.204%
5/9/2024 Forum Financial Management LP375,533$19.63M0.3%-29.5%0.661%
5/9/2024 Kingsview Wealth Management LLC14,529$759K0.0%-7.8%0.026%
5/9/2024 Condor Capital Management4,208$220K0.0%-37.5%0.007%
5/8/2024 Avantax Advisory Services Inc.13,120$686K0.0%-1.7%0.023%
5/8/2024 Sofi Wealth LLC69,489$3.63M0.3%+6.7%0.123%
5/7/2024 Verus Capital Partners LLC7,395$386K0.0%+6.4%0.013%
5/7/2024 Sei Investments Co.3,525,337$184.23M0.3%+10.0%6.229%
5/7/2024 Concurrent Investment Advisors LLC8,608$450K0.0%+3.3%0.015%
5/7/2024 Oppenheimer & Co. Inc.35,548$1.86M0.0%+4.3%0.063%
5/7/2024 Empirical Financial Services LLC d.b.a. Empirical Wealth Management123,982$6.48M0.2%-3.0%0.219%
5/7/2024 SG Americas Securities LLC94,916$4.96M0.0%-32.6%0.168%
5/6/2024 Envestnet Portfolio Solutions Inc.37,055$1.94M0.0%+44.3%0.065%
5/4/2024 Csenge Advisory Group16,548$865K0.0%+62.3%0.029%
5/4/2024 Richardson Financial Services Inc.9,033$472K0.3%+19.2%0.016%
5/3/2024 Rehmann Capital Advisory Group25,525$1.33M0.1%+21.7%0.045%
5/3/2024 Whittier Trust Co.3,305$173K0.0%-74.2%0.006%
5/1/2024 Capstone Investment Advisors LLC367,701$19.22M0.1%+97.3%0.650%
5/1/2024 Janney Montgomery Scott LLC121,454$6.35M0.0%+24.7%0.215%
5/1/2024 BNP Paribas Financial Markets49,303$2.58M0.0%+3,186.9%0.087%
5/1/2024 Concourse Financial Group Securities Inc.12,631$660K0.0%+33.3%0.022%
4/30/2024 Private Advisor Group LLC12,711$664K0.0%+17.3%0.022%
4/30/2024 Norden Group LLC14,702$768K0.1%N/A0.026%
4/30/2024 HB Wealth Management LLC16,970$887K0.0%+11.6%0.030%
4/30/2024 AFT Forsyth & Company Inc.12,625$660K0.4%-19.2%0.022%
4/30/2024 Perigon Wealth Management LLC13,462$704K0.0%+2.4%0.024%
4/29/2024Commonwealth Equity Services LLC807,663$42.21M0.1%+0.8%1.427%
4/29/2024 FAS Wealth Partners Inc.61,247$3.20M0.3%-1.8%0.108%
4/25/2024 Capital Investment Advisory Services LLC500$26K0.0%N/A0.001%
4/24/2024 1900 Wealth Management LLC32,843$1.72M0.2%-82.7%0.058%
4/24/2024 Activest Wealth Management1,879$98K0.0%+93,850.0%0.003%
The ONE AI Stock to own now. (It’s not Nvidia.) (Ad)

Don’t panic — you haven’t missed the boat on AI. In fact, it has barely launched. Sure, the early stages of this boom were big … But I believe the real wealth in AI has yet to be made …

Click here to see the presentation now.
4/23/2024 Sage Mountain Advisors LLC28,099$1.47M0.2%-92.8%0.050%
4/23/2024 McAdam LLC21,697$1.13M0.1%-5.1%0.038%
4/23/2024 Raymond James Financial Services Advisors Inc.134,570$7.03M0.0%-4.1%0.238%
4/22/2024 PFG Investments LLC5,651$295K0.0%N/A0.010%
4/22/2024 Rainey & Randall Investment Management Inc.27,958$1.46M0.3%+18.1%0.049%
4/22/2024 BTS Asset Management Inc.113,093$5.91M4.9%-10.8%0.200%
4/19/2024 Veery Capital LLC86,967$4.55M1.9%+14.9%0.153%
4/19/2024 Westside Investment Management Inc.19,451$1.02M0.2%+4.5%0.034%
4/18/2024 Claro Advisors LLC4,668$244K0.0%N/A0.008%
4/17/2024 Private Ocean LLC154,051$8.05M0.9%-71.1%0.271%
4/17/2024 Grimes & Company Inc.1,088,382$56.88M1.7%-0.8%1.916%
4/17/2024 Hennion & Walsh Asset Management Inc.18,039$943K0.1%+221.6%0.032%
4/16/2024 Register Financial Advisors LLC683$36K0.0%N/A0.001%
4/16/2024 Chesley Taft & Associates LLC13,125$686K0.0%+15.1%0.023%
4/16/2024 Wealth Enhancement Advisory Services LLC35,778$1.87M0.0%+21.9%0.063%
4/15/2024 Wealthcare Capital Management LLC6,173$323K0.0%+7.5%0.011%
4/15/2024 Wealthcare Advisory Partners LLC59,468$3.11M0.1%+27.1%0.105%
4/15/2024 Revolve Wealth Partners LLC170,211$8.90M1.5%+2.9%0.300%
4/15/2024 Counterpoint Mutual Funds LLC657,359$34.35M8.4%+103.5%1.157%
4/13/2024 Parkside Investments LLC37,550$1.96M0.3%N/A0.066%
4/12/2024 Annex Advisory Services LLC9,402$491K0.0%-87.0%0.017%
4/12/2024 Capital Advisors Wealth Management LLC43,948$2.30M0.5%-8.9%0.077%
4/11/2024 RFG Advisory LLC187,808$9.82M0.3%+1.4%0.331%
4/11/2024 PFW Advisors LLC19,078$997K0.3%-1.8%0.034%
4/10/2024 Park Avenue Securities LLC40,831$2.13M0.0%+35.6%0.072%
4/10/2024 Wedmont Private Capital26,992$1.39M0.1%+2.4%0.048%
4/9/2024 Mather Group LLC.62,505$3.23M0.0%-1.1%0.110%
4/5/2024 Insight Wealth Strategies LLC76,797$4.01M0.6%+4.8%0.135%
4/4/2024 S. R. Schill & Associates10,967$573K0.2%+33.0%0.019%
4/3/2024 Arden Trust Co60,520$3.16M0.4%N/A0.107%
3/22/2024 PNC Financial Services Group Inc.14,799$764K0.0%-6.3%0.026%
3/15/2024 Hart & Patterson Financial Group LLC30,951$1.60M0.8%N/A0.054%
3/14/2024 Yeomans Consulting Group Inc.44,452$2.30M1.1%N/A0.078%
3/6/2024 SageView Advisory Group LLC100,368$5.18M0.2%+1,839.9%0.177%
3/4/2024 Richardson Financial Services Inc.7,579$391K0.3%N/A0.013%
2/29/2024 Tortoise Investment Management LLC21,950$1.13M0.2%-38.2%0.039%
2/26/2024 Integrated Advisors Network LLC21,816$1.13M0.1%-2.9%0.038%
2/22/2024 Peterson Wealth Management9,162$473K0.4%-59.9%0.016%
2/16/2024 SageView Advisory Group LLC100,368$5.18M0.2%+1,839.9%0.177%
2/15/2024 Financial Network Wealth Advisors LLC54,934$2.84M3.0%N/A0.097%
2/14/2024 Pitcairn Co.63,478$3.28M0.3%N/A0.112%
2/14/2024 Brown Wealth Management LLC49,500$2.56M1.1%-5.2%0.087%
2/14/2024 First Financial Bankshares Inc5,324$275K0.0%N/A0.009%
2/14/2024 Sei Investments Co.3,204,422$165.44M0.3%-6.0%5.642%
2/14/2024 Connectus Wealth LLC65,570$3.40M0.1%-7.3%0.115%
2/13/2024 Morningstar Investment Services LLC161,398$8.33M0.0%+98.5%0.284%
2/13/2024 Exencial Wealth Advisors LLC22,945$1.19M0.0%N/A0.040%
2/13/2024 Annex Advisory Services LLC72,533$3.75M0.2%N/A0.128%
2/13/2024 Oppenheimer & Co. Inc.34,095$1.76M0.0%-11.8%0.060%
2/12/2024 Capstone Investment Advisors LLC186,401$9.62M0.0%N/A0.328%
WARNING about the death of the U.S. dollar… (Ad)

Where do you turn during times of economic uncertainty? Many elites trust storing their wealth in gold (which has historically boomed when the dollar’s value has plummeted!)

Get Colonial Metals' new Precious Metals Investment Guide.
2/12/2024Focus Financial Network Inc. ADV20,000$1.03M0.0%N/A0.035%
2/12/2024 Steward Partners Investment Advisory LLC7,993$413K0.0%+11.9%0.014%
2/12/2024 Proquility Private Wealth Partners LLC6,573$339K0.1%-63.1%0.012%
2/12/2024 Parallel Advisors LLC511$26K0.0%+170.4%0.001%
2/12/2024MMA Asset Management LLC10,543$541K0.3%-7.4%0.019%
2/9/2024 Advisory Services Network LLC4,437$229K0.0%N/A0.008%
2/9/2024 Avantax Planning Partners Inc.527,524$27.24M1.0%+37.3%0.929%
2/9/2024 SageView Advisory Group LLC100,368$5.18M0.2%+1,839.9%0.177%
2/9/2024 EverSource Wealth Advisors LLC12,274$634K0.1%-1.7%0.022%
2/9/2024 Journey Strategic Wealth LLC20,939$1.08M0.1%N/A0.037%
(Data available from 1/1/2016 forward)

HYD Institutional Ownership - Frequently Asked Questions

Who are the largest shareholders of HYD shares?

During the previous two years, 331 institutional investors and hedge funds held shares of VanEck High Yield Muni ETF. The most heavily invested institutionals were Aspire Private Capital LLC ($39.22B), Bank of America Corp DE ($549.27M), Sei Investments Co. ($184.23M), Royal Bank of Canada ($98.32M), Envestnet Asset Management Inc. ($66.10M), Grimes & Company Inc. ($56.88M), and Northwestern Mutual Wealth Management Co. ($56.26M).Learn more on HYD's institutional investors.

Which institutional investors have been buying VanEck High Yield Muni ETF stock?

Of the 266 institutional investors that purchased VanEck High Yield Muni ETF stock in the last 24 months, the following investors and hedge funds have bought the highest volume of shares: Counterpoint Mutual Funds LLC ($1.23M), Sei Investments Co. ($1.19M), Grimes & Company Inc. ($1.10M), Bank of America Corp DE ($1.03M), Private Ocean LLC ($959.92K), TIAA Trust National Association ($782.88K), and Zions Bancorporation N.A. ($754.17K).

How much institutional buying is happening at VanEck High Yield Muni ETF?

Institutional investors have bought a total of 19,230,078 shares in the last 24 months. This purchase volume represents approximately $981.03M in transactions.

Which VanEck High Yield Muni ETF major shareholders have been selling company stock?

Of the 195 institutional investors that sold VanEck High Yield Muni ETF stock in the last 24 months, the following investors and hedge funds have sold the highest volume of shares: Sei Investments Co. ($1.76M), Bank of America Corp DE ($1.20M), Private Ocean LLC ($1.01M), Zions Bancorporation N.A. ($850.94K), D.A. Davidson & CO. ($762.46K), Sage Mountain Advisors LLC ($359.75K), and Osaic Holdings Inc. ($338.39K).

How much institutional selling is happening at VanEck High Yield Muni ETF?

Institutional investors have sold a total of 10,076,499 shares in the last 24 months. This volume of shares sold represents approximately $517.44M in transactions.


This page (BATS:HYD) was last updated on 5/23/2024 by MarketBeat.com Staff

From Our Partners